Terminal Aerodrome Forecast
Issued by NWS Charleston, WV

Current Version | Previous Version | Graphics & Text | Print | Product List | Glossary On
Versions: 1 2 3 4 5 6 7 8 9 10 11 12 13 14 15 16 17 18 19 20 21 22 23 24 25 26
385
FTUS41 KRLX 041510 AAA
TAFBKW
TAF AMD
KBKW 041510Z 0415/0512 14008KT P6SM OVC040
     FM041900 14008KT P6SM OVC030
     FM050000 14011G17KT 6SM -RA OVC015
     FM050300 17008KT 2SM -RA OVC005
     FM050600 20005KT 4SM -RA OVC008
     FM050900 25005KT 4SM BR OVC008=

USA.gov is the U.S. government's official web portal to all federal, state and local government web resources and services.